createdAt,value
2019-02-04T00:00:05.616Z,1.95
2019-02-04T00:01:05.640Z,1.93
2019-02-04T00:02:05.664Z,2.00
2019-02-04T00:03:05.685Z,2.17
2019-02-04T00:04:05.708Z,2.12
2019-02-04T00:05:05.733Z,2.14
2019-02-04T00:06:05.758Z,2.18
2019-02-04T00:07:05.782Z,2.12
2019-02-04T00:08:05.805Z,2.05
2019-02-04T00:09:05.827Z,2.02
2019-02-04T00:10:05.853Z,1.91
2019-02-04T00:11:05.874Z,1.95
2019-02-04T00:12:05.898Z,1.86
2019-02-04T00:13:05.935Z,1.93
2019-02-04T00:14:05.947Z,1.93
2019-02-04T00:15:05.968Z,1.93
2019-02-04T00:16:05.993Z,1.88
2019-02-04T00:17:06.018Z,1.91
2019-02-04T00:18:06.043Z,2.03
2019-02-04T00:19:06.063Z,2.00
2019-02-04T00:20:06.086Z,1.95
2019-02-04T00:21:06.116Z,1.95
2019-02-04T00:22:06.136Z,1.93
2019-02-04T00:23:06.158Z,1.90
2019-02-04T00:24:06.182Z,1.91
2019-02-04T00:25:06.204Z,1.80
2019-02-04T00:26:06.230Z,1.79
2019-02-04T00:27:06.252Z,1.79
2019-02-04T00:28:06.277Z,1.83
2019-02-04T00:29:06.349Z,1.84
2019-02-04T00:30:06.323Z,1.84
2019-02-04T00:31:06.347Z,1.84
2019-02-04T00:32:06.369Z,1.81
2019-02-04T00:33:06.394Z,1.83
2019-02-04T00:34:06.418Z,1.80
2019-02-04T00:35:06.440Z,1.84
2019-02-04T00:36:06.464Z,1.77
2019-02-04T00:37:06.488Z,1.83
2019-02-04T00:38:06.511Z,1.79
2019-02-04T00:39:06.537Z,1.76
2019-02-04T00:40:06.558Z,1.80
2019-02-04T00:41:06.581Z,1.72
2019-02-04T00:42:06.606Z,1.80
2019-02-04T00:43:06.628Z,1.80
2019-02-04T00:44:06.653Z,1.72
2019-02-04T00:45:06.674Z,1.66
2019-02-04T00:46:06.699Z,1.80
2019-02-04T00:47:06.722Z,1.77
2019-02-04T00:48:06.746Z,1.73
2019-02-04T00:49:06.770Z,1.66
2019-02-04T00:50:06.794Z,1.79
2019-02-04T00:51:06.818Z,1.80
2019-02-04T00:52:06.840Z,1.77
2019-02-04T00:53:06.864Z,1.76
2019-02-04T00:54:07.838Z,1.73
2019-02-04T00:55:06.911Z,1.70
2019-02-04T00:56:06.934Z,1.68
2019-02-04T00:57:06.958Z,1.65
2019-02-04T00:58:06.982Z,1.73
2019-02-04T00:59:07.005Z,1.79
2019-02-04T01:00:07.032Z,1.86
2019-02-04T01:01:07.053Z,1.80
2019-02-04T01:02:07.078Z,1.90
2019-02-04T01:03:07.100Z,1.87
2019-02-04T01:04:07.124Z,1.83
2019-02-04T01:05:07.151Z,1.84
2019-02-04T01:06:07.171Z,1.86
2019-02-04T01:07:07.194Z,1.86
2019-02-04T01:08:07.220Z,1.77
2019-02-04T01:09:07.241Z,1.90
2019-02-04T01:10:07.267Z,1.79
2019-02-04T01:11:08.741Z,1.80
2019-02-04T01:12:07.314Z,1.83
2019-02-04T01:13:07.389Z,1.83
2019-02-04T01:14:07.361Z,1.80
2019-02-04T01:15:07.382Z,1.76
2019-02-04T01:16:07.407Z,1.77
2019-02-04T01:17:07.429Z,1.76
2019-02-04T01:18:07.454Z,1.72
2019-02-04T01:19:07.476Z,1.76
2019-02-04T01:20:07.500Z,1.93
2019-02-04T01:21:07.524Z,1.88
2019-02-04T01:22:07.548Z,1.91
2019-02-04T01:23:07.575Z,1.93
2019-02-04T01:24:07.593Z,1.90
2019-02-04T01:25:07.617Z,1.84
2019-02-04T01:26:07.641Z,1.88
2019-02-04T01:27:07.666Z,1.91
2019-02-04T01:28:07.687Z,1.88
2019-02-04T01:29:07.711Z,1.90
2019-02-04T01:30:07.734Z,1.83
2019-02-04T01:31:07.757Z,1.79
2019-02-04T01:32:07.781Z,1.81
2019-02-04T01:33:07.807Z,1.83
2019-02-04T01:34:07.828Z,1.88
2019-02-04T01:35:07.851Z,1.88
2019-02-04T01:36:07.876Z,1.80
2019-02-04T01:37:07.897Z,1.79
2019-02-04T01:38:07.922Z,1.86
2019-02-04T01:39:07.947Z,1.81
2019-02-04T01:40:07.972Z,1.65
2019-02-04T01:41:07.997Z,1.68
2019-02-04T01:42:08.017Z,1.63
2019-02-04T01:43:08.039Z,1.60
2019-02-04T01:44:08.066Z,1.50
2019-02-04T01:45:08.086Z,1.51
2019-02-04T01:46:08.109Z,1.42
2019-02-04T01:47:14.623Z,1.41
2019-02-04T01:48:08.155Z,1.37
2019-02-04T01:49:08.179Z,1.33
2019-02-04T01:50:08.204Z,1.27
2019-02-04T01:51:08.225Z,1.32
2019-02-04T01:52:08.248Z,1.23
2019-02-04T01:53:08.272Z,1.18
2019-02-04T01:54:08.296Z,1.26
2019-02-04T01:55:08.319Z,1.16
2019-02-04T01:56:08.342Z,1.08
2019-02-04T01:57:08.365Z,1.11
2019-02-04T01:58:08.390Z,1.09
2019-02-04T01:59:08.413Z,1.11
2019-02-04T02:00:08.435Z,1.02
2019-02-04T02:01:08.460Z,1.06
2019-02-04T02:02:08.482Z,1.12
2019-02-04T02:03:08.505Z,1.08
2019-02-04T02:04:08.529Z,1.05
2019-02-04T02:05:08.602Z,0.97
2019-02-04T02:06:08.574Z,1.00
2019-02-04T02:07:08.597Z,1.04
2019-02-04T02:08:08.628Z,1.05
2019-02-04T02:09:08.647Z,1.00
2019-02-04T02:10:08.667Z,0.98
2019-02-04T02:11:08.690Z,0.93
2019-02-04T02:12:08.712Z,0.84
2019-02-04T02:13:08.734Z,0.97
2019-02-04T02:14:08.758Z,0.93
2019-02-04T02:15:08.780Z,1.02
2019-02-04T02:16:08.897Z,1.09
2019-02-04T02:17:08.827Z,1.06
2019-02-04T02:18:08.850Z,1.11
2019-02-04T02:19:08.874Z,1.00
2019-02-04T02:20:08.897Z,1.00
2019-02-04T02:21:08.919Z,0.98
2019-02-04T02:22:08.942Z,0.86
2019-02-04T02:23:08.965Z,0.91
2019-02-04T02:24:08.988Z,0.84
2019-02-04T02:25:09.010Z,0.84
2019-02-04T02:26:09.032Z,0.84
2019-02-04T02:27:09.056Z,0.83
2019-02-04T02:28:09.078Z,0.79
2019-02-04T02:29:09.104Z,0.73
2019-02-04T02:30:09.126Z,0.76
2019-02-04T02:31:09.149Z,0.88
2019-02-04T02:32:09.171Z,0.83
2019-02-04T02:33:09.195Z,0.83
2019-02-04T02:34:09.217Z,0.83
2019-02-04T02:35:09.240Z,0.93
2019-02-04T02:36:09.261Z,0.97
2019-02-04T02:37:09.283Z,0.96
2019-02-04T02:38:09.306Z,0.90
2019-02-04T02:39:09.332Z,0.76
2019-02-04T02:40:09.351Z,0.69
2019-02-04T02:41:09.392Z,0.57
2019-02-04T02:42:09.396Z,0.47
2019-02-04T02:43:11.577Z,0.57
2019-02-04T02:44:09.441Z,0.53
2019-02-04T02:45:09.469Z,0.53
2019-02-04T02:46:09.487Z,0.58
2019-02-04T02:47:09.510Z,0.58
2019-02-04T02:48:09.534Z,0.46
2019-02-04T02:49:09.558Z,0.49
2019-02-04T02:50:09.578Z,0.55
2019-02-04T02:51:09.599Z,0.55
2019-02-04T02:52:09.624Z,0.55
2019-02-04T02:53:09.643Z,0.60
2019-02-04T02:54:09.671Z,0.57
2019-02-04T02:55:09.688Z,0.55
2019-02-04T02:56:09.721Z,0.57
2019-02-04T02:57:09.736Z,0.55
2019-02-04T02:58:09.756Z,0.60
2019-02-04T02:59:09.779Z,0.49
2019-02-04T03:00:09.801Z,0.47
2019-02-04T03:01:09.853Z,0.39
2019-02-04T03:02:09.853Z,0.46
2019-02-04T03:03:09.906Z,0.46
2019-02-04T03:04:09.895Z,0.47
2019-02-04T03:05:09.913Z,0.36
2019-02-04T03:06:09.937Z,0.41
2019-02-04T03:07:09.960Z,0.32
2019-02-04T03:08:09.978Z,0.31
2019-02-04T03:09:10.003Z,0.18
2019-02-04T03:10:10.025Z,0.20
2019-02-04T03:11:10.046Z,0.26
2019-02-04T03:12:10.069Z,0.28
2019-02-04T03:13:10.093Z,0.32
2019-02-04T03:14:10.115Z,0.49
2019-02-04T03:15:10.134Z,0.44
2019-02-04T03:16:10.158Z,0.51
2019-02-04T03:17:10.182Z,0.53
2019-02-04T03:18:10.204Z,0.49
2019-02-04T03:19:10.224Z,0.42
2019-02-04T03:20:10.248Z,0.33
2019-02-04T03:21:10.269Z,0.42
2019-02-04T03:22:10.292Z,0.21
2019-02-04T03:23:10.313Z,0.18
2019-02-04T03:24:10.347Z,0.23
2019-02-04T03:25:10.368Z,0.10
2019-02-04T03:26:10.400Z,-0.01
2019-02-04T03:27:10.402Z,-0.01
2019-02-04T03:28:10.428Z,-0.05
2019-02-04T03:29:10.449Z,-0.08
2019-02-04T03:30:10.485Z,-0.03
2019-02-04T03:31:10.492Z,0.03
2019-02-04T03:32:10.519Z,0.10
2019-02-04T03:33:10.538Z,0.13
2019-02-04T03:34:10.558Z,0.15
2019-02-04T03:35:10.589Z,0.10
2019-02-04T03:36:10.602Z,0.11
2019-02-04T03:37:10.624Z,0.03
2019-02-04T03:38:10.648Z,0.04
2019-02-04T03:39:10.668Z,-0.01
2019-02-04T03:40:10.692Z,0.04
2019-02-04T03:41:10.714Z,0.11
2019-02-04T03:42:10.735Z,0.17
2019-02-04T03:43:10.756Z,0.15
2019-02-04T03:44:10.778Z,0.33
2019-02-04T03:45:10.809Z,0.24
2019-02-04T03:46:10.823Z,0.28
2019-02-04T03:47:10.851Z,0.36
2019-02-04T03:48:10.870Z,0.38
2019-02-04T03:49:10.889Z,0.46
2019-02-04T03:50:10.911Z,0.41
2019-02-04T03:51:10.935Z,0.41
2019-02-04T03:52:10.955Z,0.32
2019-02-04T03:53:10.977Z,0.41
2019-02-04T03:54:11.000Z,0.39
2019-02-04T03:55:11.021Z,0.41
2019-02-04T03:56:11.100Z,0.31
2019-02-04T03:57:11.065Z,0.39
2019-02-04T03:58:11.088Z,0.33
2019-02-04T03:59:11.110Z,0.32
2019-02-04T04:00:11.131Z,0.32
2019-02-04T04:01:11.154Z,0.21
2019-02-04T04:02:11.175Z,0.20
2019-02-04T04:03:11.197Z,0.32
2019-02-04T04:04:11.219Z,0.23
2019-02-04T04:05:11.241Z,0.18
2019-02-04T04:06:11.263Z,0.13
2019-02-04T04:07:11.335Z,0.20
2019-02-04T04:08:11.307Z,0.13
2019-02-04T04:09:11.329Z,0.10
2019-02-04T04:10:11.350Z,0.00
2019-02-04T04:11:11.373Z,0.02
2019-02-04T04:12:11.394Z,-0.01
2019-02-04T04:13:11.416Z,0.04
2019-02-04T04:14:11.450Z,-0.05
2019-02-04T04:15:11.509Z,-0.11
2019-02-04T04:16:11.482Z,-0.10
2019-02-04T04:17:11.504Z,-0.11
2019-02-04T04:18:15.848Z,-0.11
2019-02-04T04:19:11.549Z,-0.08
2019-02-04T04:20:11.569Z,-0.23
2019-02-04T04:21:11.596Z,-0.08
2019-02-04T04:22:11.616Z,-0.11
2019-02-04T04:23:11.635Z,-0.18
2019-02-04T04:24:11.658Z,-0.21
2019-02-04T04:25:11.680Z,-0.23
2019-02-04T04:26:11.701Z,-0.23
2019-02-04T04:27:11.722Z,-0.14
2019-02-04T04:28:11.748Z,-0.25
2019-02-04T04:29:11.770Z,-0.26
2019-02-04T04:30:11.792Z,-0.31
2019-02-04T04:31:11.810Z,-0.22
2019-02-04T04:32:11.833Z,-0.21
2019-02-04T04:33:11.856Z,-0.15
2019-02-04T04:34:11.877Z,-0.16
2019-02-04T04:35:11.899Z,-0.01
2019-02-04T04:36:11.921Z,0.02
2019-02-04T04:37:11.942Z,-0.04
2019-02-04T04:38:11.964Z,-0.05
2019-02-04T04:39:11.987Z,-0.04
2019-02-04T04:40:12.009Z,-0.19
2019-02-04T04:41:12.031Z,-0.11
2019-02-04T04:42:12.052Z,-0.16
2019-02-04T04:43:12.073Z,-0.11
2019-02-04T04:44:12.095Z,-0.19
2019-02-04T04:45:12.117Z,-0.19
2019-02-04T04:46:12.139Z,-0.14
2019-02-04T04:47:12.160Z,-0.14
2019-02-04T04:48:12.183Z,-0.15
2019-02-04T04:49:12.206Z,-0.10
2019-02-04T04:50:12.228Z,-0.14
2019-02-04T04:51:12.248Z,-0.16
2019-02-04T04:52:12.271Z,-0.10
2019-02-04T04:53:12.295Z,-0.14
2019-02-04T04:54:12.314Z,-0.08
2019-02-04T04:55:12.336Z,-0.11
2019-02-04T04:56:12.359Z,-0.07
2019-02-04T04:57:12.380Z,-0.08
2019-02-04T04:58:12.403Z,-0.10
2019-02-04T04:59:12.423Z,-0.05
2019-02-04T05:00:12.445Z,-0.07
2019-02-04T05:01:12.468Z,-0.11
2019-02-04T05:02:12.490Z,-0.07
2019-02-04T05:03:12.514Z,-0.10
2019-02-04T05:04:12.533Z,-0.15
2019-02-04T05:05:12.556Z,-0.04
2019-02-04T05:06:12.578Z,-0.08
2019-02-04T05:07:12.598Z,-0.08
2019-02-04T05:08:12.620Z,-0.14
2019-02-04T05:09:12.714Z,-0.11
2019-02-04T05:10:12.666Z,-0.25
2019-02-04T05:11:12.686Z,-0.29
2019-02-04T05:12:12.708Z,-0.26
2019-02-04T05:13:12.730Z,-0.25
2019-02-04T05:14:12.751Z,-0.25
2019-02-04T05:15:12.773Z,-0.15
2019-02-04T05:16:12.795Z,-0.23
2019-02-04T05:17:12.819Z,-0.26
2019-02-04T05:18:12.839Z,-0.23
2019-02-04T05:19:12.864Z,-0.23
2019-02-04T05:20:12.884Z,-0.21
2019-02-04T05:21:12.905Z,-0.23
2019-02-04T05:22:12.928Z,-0.22
2019-02-04T05:23:12.948Z,-0.34
2019-02-04T05:24:12.970Z,-0.31
2019-02-04T05:25:12.993Z,-0.34
2019-02-04T05:26:13.015Z,-0.28
2019-02-04T05:27:13.036Z,-0.39
2019-02-04T05:28:13.059Z,-0.39
2019-02-04T05:29:13.082Z,-0.39
2019-02-04T05:30:13.103Z,-0.43
2019-02-04T05:31:13.127Z,-0.47
2019-02-04T05:32:13.147Z,-0.49
2019-02-04T05:33:13.169Z,-0.47
2019-02-04T05:34:13.192Z,-0.37
2019-02-04T05:35:13.213Z,-0.36
2019-02-04T05:36:13.233Z,-0.44
2019-02-04T05:37:13.255Z,-0.31
2019-02-04T05:38:13.278Z,-0.31
2019-02-04T05:39:13.298Z,-0.33
2019-02-04T05:40:13.320Z,-0.22
2019-02-04T05:41:13.343Z,-0.03
2019-02-04T05:42:13.365Z,-0.19
2019-02-04T05:43:13.385Z,-0.19
2019-02-04T05:44:13.407Z,-0.21
2019-02-04T05:45:13.434Z,-0.08
2019-02-04T05:46:13.452Z,-0.23
2019-02-04T05:47:13.472Z,-0.18
2019-02-04T05:48:13.497Z,-0.26
2019-02-04T05:49:13.518Z,-0.31
2019-02-04T05:50:13.553Z,-0.26
2019-02-04T05:51:13.560Z,-0.23
2019-02-04T05:52:13.582Z,-0.05
2019-02-04T05:53:13.602Z,-0.18
2019-02-04T05:54:13.625Z,-0.08
2019-02-04T05:55:13.647Z,-0.08
2019-02-04T05:56:13.668Z,-0.23
2019-02-04T05:57:13.692Z,-0.15
2019-02-04T05:58:13.714Z,-0.19
2019-02-04T05:59:13.734Z,-0.26
2019-02-04T06:00:13.767Z,-0.22
2019-02-04T06:01:13.777Z,-0.25
2019-02-04T06:02:13.800Z,-0.29
2019-02-04T06:03:13.820Z,-0.39
2019-02-04T06:04:13.843Z,-0.26
2019-02-04T06:05:13.865Z,-0.34
2019-02-04T06:06:13.889Z,-0.34
2019-02-04T06:07:15.423Z,-0.36
2019-02-04T06:08:13.930Z,-0.37
2019-02-04T06:09:13.953Z,-0.60
2019-02-04T06:10:13.974Z,-0.54
2019-02-04T06:11:13.996Z,-0.57
2019-02-04T06:12:14.018Z,-0.60
2019-02-04T06:13:14.040Z,-0.52
2019-02-04T06:14:14.062Z,-0.60
2019-02-04T06:15:14.083Z,-0.65
2019-02-04T06:16:14.105Z,-0.70
2019-02-04T06:17:14.128Z,-0.79
2019-02-04T06:18:14.148Z,-0.80
2019-02-04T06:19:14.169Z,-0.78
2019-02-04T06:20:14.193Z,-0.78
2019-02-04T06:21:14.213Z,-0.78
2019-02-04T06:22:14.242Z,-0.78
2019-02-04T06:23:14.258Z,-0.72
2019-02-04T06:24:14.280Z,-0.79
2019-02-04T06:25:14.317Z,-0.79
2019-02-04T06:26:14.373Z,-0.79
2019-02-04T06:27:14.345Z,-0.79
2019-02-04T06:28:14.379Z,-0.75
2019-02-04T06:29:14.398Z,-0.65
2019-02-04T06:30:14.409Z,-0.69
2019-02-04T06:31:14.430Z,-0.69
2019-02-04T06:32:14.452Z,-0.69
2019-02-04T06:33:14.477Z,-0.73
2019-02-04T06:34:14.496Z,-0.69
2019-02-04T06:35:14.518Z,-0.64
2019-02-04T06:36:14.541Z,-0.67
2019-02-04T06:37:14.565Z,-0.69
2019-02-04T06:38:14.583Z,-0.65
2019-02-04T06:39:14.604Z,-0.70
2019-02-04T06:40:14.627Z,-0.78
2019-02-04T06:41:14.648Z,-0.67
2019-02-04T06:42:14.669Z,-0.73
2019-02-04T06:43:14.692Z,-0.78
2019-02-04T06:44:14.713Z,-0.75
2019-02-04T06:45:14.734Z,-0.64
2019-02-04T06:46:14.757Z,-0.31
2019-02-04T06:47:14.777Z,0.00
2019-02-04T06:48:14.799Z,0.11
2019-02-04T06:49:14.821Z,0.17
2019-02-04T06:50:14.842Z,0.42
2019-02-04T06:51:14.864Z,0.47
2019-02-04T06:52:14.886Z,0.62
2019-02-04T06:53:14.907Z,0.60
2019-02-04T06:54:14.932Z,0.60
2019-02-04T06:55:14.950Z,0.60
2019-02-04T06:56:14.972Z,0.50
2019-02-04T06:57:14.995Z,0.49
2019-02-04T06:58:15.015Z,0.60
2019-02-04T06:59:15.037Z,0.53
2019-02-04T07:00:15.058Z,0.49
2019-02-04T07:01:15.080Z,0.44
2019-02-04T07:02:15.102Z,0.57
2019-02-04T07:03:15.125Z,0.49
2019-02-04T07:04:15.147Z,0.47
2019-02-04T07:05:15.168Z,0.46
2019-02-04T07:06:15.189Z,0.44
2019-02-04T07:07:15.328Z,0.32
2019-02-04T07:08:15.231Z,0.26
2019-02-04T07:09:15.256Z,0.35
2019-02-04T07:10:15.276Z,0.28
2019-02-04T07:11:15.296Z,0.35
2019-02-04T07:12:15.321Z,0.46
2019-02-04T07:13:15.342Z,0.44
2019-02-04T07:14:15.362Z,0.50
2019-02-04T07:15:15.386Z,0.46
2019-02-04T07:16:15.406Z,0.35
2019-02-04T07:17:15.426Z,0.18
2019-02-04T07:18:15.448Z,0.02
2019-02-04T07:19:23.914Z,-0.11
2019-02-04T07:20:15.491Z,-0.19
2019-02-04T07:21:15.513Z,-0.28
2019-02-04T07:22:15.537Z,-0.34
2019-02-04T07:23:15.556Z,-0.31
2019-02-04T07:24:15.578Z,-0.22
2019-02-04T07:25:15.603Z,-0.14
2019-02-04T07:26:15.623Z,-0.03
2019-02-04T07:27:15.644Z,-0.01
2019-02-04T07:28:15.666Z,-0.01
2019-02-04T07:29:15.688Z,0.18
2019-02-04T07:30:15.710Z,0.51
2019-02-04T07:31:15.735Z,0.83
2019-02-04T07:32:15.828Z,1.29
2019-02-04T07:33:15.775Z,1.66
2019-02-04T07:34:15.798Z,2.23
2019-02-04T07:35:15.820Z,2.82
2019-02-04T07:36:15.843Z,3.06
2019-02-04T07:37:15.863Z,3.78
2019-02-04T07:38:15.887Z,4.05
2019-02-04T07:39:15.907Z,3.94
2019-02-04T07:40:15.930Z,4.22
2019-02-04T07:41:15.953Z,4.27
2019-02-04T07:42:15.975Z,4.52
2019-02-04T07:43:15.997Z,4.60
2019-02-04T07:44:17.373Z,4.72
2019-02-04T07:45:16.042Z,4.89
2019-02-04T07:46:16.065Z,5.12
2019-02-04T07:47:16.087Z,5.30
2019-02-04T07:48:16.111Z,5.48
2019-02-04T07:49:16.134Z,5.56
2019-02-04T07:50:16.156Z,5.60
2019-02-04T07:51:16.178Z,6.19
2019-02-04T07:52:16.203Z,6.55
2019-02-04T07:53:16.226Z,6.31
2019-02-04T07:54:16.249Z,6.01
2019-02-04T07:55:16.273Z,5.82
2019-02-04T07:56:16.295Z,6.18
2019-02-04T07:57:16.320Z,6.17
2019-02-04T07:58:16.343Z,6.15
2019-02-04T07:59:16.367Z,6.44
2019-02-04T08:00:16.390Z,7.02
2019-02-04T08:01:16.416Z,6.97
2019-02-04T08:02:16.440Z,7.16
2019-02-04T08:03:16.462Z,7.24
2019-02-04T08:04:16.487Z,7.27
2019-02-04T08:05:16.510Z,7.46
2019-02-04T08:06:16.536Z,8.01
2019-02-04T08:07:16.559Z,7.92
2019-02-04T08:08:16.586Z,8.04
2019-02-04T08:09:16.608Z,8.44
2019-02-04T08:10:16.642Z,8.63
2019-02-04T08:11:16.709Z,8.36
2019-02-04T08:12:16.683Z,8.19
2019-02-04T08:13:16.708Z,8.20
2019-02-04T08:14:16.732Z,8.05
2019-02-04T08:15:16.756Z,7.67
2019-02-04T08:16:16.781Z,8.00
2019-02-04T08:17:16.807Z,7.69
2019-02-04T08:18:16.833Z,8.23
2019-02-04T08:19:16.857Z,8.30
2019-02-04T08:20:16.884Z,8.63
2019-02-04T08:21:16.909Z,8.63
2019-02-04T08:22:16.935Z,9.01
2019-02-04T08:23:16.958Z,9.31
2019-02-04T08:24:16.986Z,9.38
2019-02-04T08:25:17.013Z,9.39
2019-02-04T08:26:17.037Z,9.10
2019-02-04T08:27:17.061Z,9.15
2019-02-04T08:28:17.088Z,8.99
2019-02-04T08:29:17.114Z,8.65
2019-02-04T08:30:17.142Z,8.94
2019-02-04T08:31:17.167Z,8.95
2019-02-04T08:32:17.193Z,9.20
2019-02-04T08:33:17.220Z,9.40
2019-02-04T08:34:17.245Z,9.72
2019-02-04T08:35:17.273Z,10.27
2019-02-04T08:36:17.299Z,10.34
2019-02-04T08:37:17.326Z,9.97
2019-02-04T08:38:17.353Z,9.71
2019-02-04T08:39:17.378Z,9.57
2019-02-04T08:40:17.404Z,9.81
2019-02-04T08:41:17.433Z,10.08
2019-02-04T08:42:17.459Z,10.38
2019-02-04T08:43:17.489Z,10.30
2019-02-04T08:44:17.512Z,10.56
2019-02-04T08:45:17.540Z,10.36
2019-02-04T08:46:17.567Z,10.32
2019-02-04T08:47:22.592Z,10.14
2019-02-04T08:48:17.622Z,9.87
2019-02-04T08:49:17.650Z,11.09
2019-02-04T08:50:17.678Z,11.54
2019-02-04T08:51:17.705Z,11.98
2019-02-04T08:52:17.732Z,11.95
2019-02-04T08:53:17.763Z,12.24
2019-02-04T08:54:17.788Z,12.10
2019-02-04T08:55:17.816Z,12.21
2019-02-04T08:56:17.844Z,12.27
2019-02-04T08:57:17.873Z,12.10
2019-02-04T08:58:17.903Z,12.82
2019-02-04T08:59:17.930Z,13.20
2019-02-04T09:00:17.960Z,13.57
2019-02-04T09:01:17.989Z,13.30
2019-02-04T09:02:18.020Z,12.96
2019-02-04T09:03:18.045Z,12.59
2019-02-04T09:04:18.074Z,12.50
2019-02-04T09:05:18.107Z,12.64
2019-02-04T09:06:18.133Z,12.28
2019-02-04T09:07:18.167Z,12.16
2019-02-04T09:08:18.193Z,12.46
2019-02-04T09:09:18.222Z,12.62
2019-02-04T09:10:18.253Z,12.46
2019-02-04T09:11:18.282Z,12.28
2019-02-04T09:12:18.311Z,12.71
2019-02-04T09:13:18.341Z,12.95
2019-02-04T09:14:18.371Z,13.20
2019-02-04T09:15:18.402Z,13.20
2019-02-04T09:16:18.431Z,13.71
2019-02-04T09:17:18.461Z,13.69
2019-02-04T09:18:18.494Z,14.04
2019-02-04T09:19:18.523Z,14.20
2019-02-04T09:20:18.557Z,14.81
2019-02-04T09:21:18.588Z,14.98
2019-02-04T09:22:18.616Z,15.06
2019-02-04T09:23:18.649Z,15.43
2019-02-04T09:24:18.677Z,15.59
2019-02-04T09:25:18.774Z,15.47
2019-02-04T09:26:18.740Z,15.97
2019-02-04T09:27:18.771Z,16.25
2019-02-04T09:28:18.806Z,16.85
2019-02-04T09:29:18.835Z,17.00
2019-02-04T09:30:18.867Z,16.52
2019-02-04T09:31:18.899Z,16.27
2019-02-04T09:32:18.932Z,16.41
2019-02-04T09:33:18.964Z,16.50
2019-02-04T09:34:18.998Z,16.78
2019-02-04T09:35:19.033Z,16.97
2019-02-04T09:36:19.061Z,16.66
2019-02-04T09:37:19.096Z,16.96
2019-02-04T09:38:19.128Z,17.07
2019-02-04T09:39:19.160Z,16.94
2019-02-04T09:40:19.194Z,16.94
2019-02-04T09:41:19.228Z,16.88
2019-02-04T09:42:19.261Z,17.25
2019-02-04T09:43:19.295Z,17.52
2019-02-04T09:44:19.328Z,17.30
2019-02-04T09:45:19.362Z,17.87
2019-02-04T09:46:19.397Z,17.92
2019-02-04T09:47:19.429Z,18.66
2019-02-04T09:48:19.465Z,18.80
2019-02-04T09:49:19.498Z,18.67
2019-02-04T09:50:21.893Z,18.47
2019-02-04T09:51:19.569Z,18.80
2019-02-04T09:52:19.603Z,19.81
2019-02-04T09:53:19.638Z,20.06
2019-02-04T09:54:19.676Z,20.32
2019-02-04T09:55:19.710Z,19.48
2019-02-04T09:56:19.747Z,18.76
2019-02-04T09:57:19.785Z,19.22
2019-02-04T09:58:19.819Z,18.75
2019-02-04T09:59:19.854Z,18.62
2019-02-04T10:00:19.891Z,18.57
2019-02-04T10:01:19.932Z,18.33
2019-02-04T10:02:19.965Z,18.12
2019-02-04T10:03:20.002Z,18.51
2019-02-04T10:04:20.038Z,19.02
2019-02-04T10:05:20.076Z,17.30
2019-02-04T10:06:20.113Z,17.84
2019-02-04T10:07:20.149Z,18.26
2019-02-04T10:08:20.186Z,18.10
2019-02-04T10:09:20.240Z,17.75
2019-02-04T10:10:20.267Z,17.87
2019-02-04T10:11:20.298Z,17.43
2019-02-04T10:12:20.365Z,17.72
2019-02-04T10:13:20.374Z,17.62
2019-02-04T10:14:20.411Z,17.79
2019-02-04T10:15:20.497Z,17.87
2019-02-04T10:16:20.486Z,17.38
2019-02-04T10:17:20.531Z,17.34
2019-02-04T10:18:20.602Z,17.58
2019-02-04T10:19:20.599Z,17.62
2019-02-04T10:20:20.659Z,18.27
2019-02-04T10:21:20.675Z,18.47
2019-02-04T10:22:20.761Z,18.20
2019-02-04T10:23:20.762Z,17.62
2019-02-04T10:24:20.791Z,17.79
2019-02-04T10:25:20.826Z,17.38
2019-02-04T10:26:20.900Z,17.66
2019-02-04T10:27:20.946Z,17.58
2019-02-04T10:28:20.951Z,17.43
2019-02-04T10:29:20.978Z,17.58
2019-02-04T10:30:21.045Z,18.37
2019-02-04T10:31:21.126Z,18.90
2019-02-04T10:32:21.096Z,19.29
2019-02-04T10:33:21.147Z,19.26
2019-02-04T10:34:21.191Z,18.69
2019-02-04T10:35:21.221Z,18.42
2019-02-04T10:36:21.259Z,18.35
2019-02-04T10:37:21.337Z,18.11
2019-02-04T10:38:21.319Z,18.36
2019-02-04T10:39:21.396Z,18.23
2019-02-04T10:40:21.397Z,18.55
2019-02-04T10:41:21.435Z,18.32
2019-02-04T10:42:21.479Z,18.11
2019-02-04T10:43:21.510Z,17.95
2019-02-04T10:44:21.580Z,17.75
2019-02-04T10:45:21.638Z,17.54
2019-02-04T10:46:21.626Z,17.38
2019-02-04T10:47:21.674Z,17.34
2019-02-04T10:48:21.722Z,17.37
2019-02-04T10:49:21.740Z,17.64
2019-02-04T10:50:21.778Z,18.07
2019-02-04T10:51:21.815Z,18.44
2019-02-04T10:52:21.861Z,18.82
2019-02-04T10:53:21.939Z,18.82
2019-02-04T10:54:21.931Z,19.66
2019-02-04T10:55:21.967Z,18.81
2019-02-04T10:56:22.051Z,18.44
2019-02-04T10:57:22.080Z,16.68
2019-02-04T10:58:22.123Z,17.11
2019-02-04T10:59:22.171Z,17.93
2019-02-04T11:00:22.160Z,18.47
2019-02-04T11:01:22.203Z,19.46
2019-02-04T11:02:22.282Z,19.33
2019-02-04T11:03:22.275Z,19.36
2019-02-04T11:04:22.319Z,19.33
2019-02-04T11:05:22.357Z,19.58
2019-02-04T11:06:22.414Z,19.59
2019-02-04T11:07:22.473Z,20.16
2019-02-04T11:08:22.529Z,19.81
2019-02-04T11:09:22.565Z,19.84
2019-02-04T11:10:22.651Z,18.90
2019-02-04T11:11:22.606Z,18.92
2019-02-04T11:12:22.642Z,18.81
2019-02-04T11:13:22.690Z,19.37
2019-02-04T11:14:22.750Z,20.05
2019-02-04T11:15:25.524Z,20.67
2019-02-04T11:16:22.821Z,20.73
2019-02-04T11:17:22.833Z,20.80
2019-02-04T11:18:22.911Z,21.12
2019-02-04T11:19:22.947Z,20.94
2019-02-04T11:20:22.969Z,19.66
2019-02-04T11:21:23.012Z,20.35
2019-02-04T11:22:23.022Z,21.27
2019-02-04T11:23:23.060Z,21.01
2019-02-04T11:24:23.137Z,19.33
2019-02-04T11:25:23.193Z,19.14
2019-02-04T11:26:23.189Z,19.31
2019-02-04T11:27:23.233Z,18.50
2019-02-04T11:28:23.304Z,18.62
2019-02-04T11:29:23.301Z,17.97
2019-02-04T11:30:23.386Z,18.63
2019-02-04T11:31:23.380Z,19.46
2019-02-04T11:32:23.463Z,18.85
2019-02-04T11:33:23.462Z,19.88
2019-02-04T11:34:23.616Z,20.50
2019-02-04T11:35:23.590Z,19.73
2019-02-04T11:36:23.623Z,19.68
2019-02-04T11:37:23.619Z,19.99
2019-02-04T11:38:23.712Z,19.41
2019-02-04T11:39:23.723Z,19.04
2019-02-04T11:40:23.753Z,19.13
2019-02-04T11:41:23.814Z,19.10
2019-02-04T11:42:23.823Z,19.78
2019-02-04T11:43:23.866Z,19.04
2019-02-04T11:44:23.915Z,18.78
2019-02-04T11:45:23.942Z,19.56
2019-02-04T11:46:23.977Z,19.31
2019-02-04T11:47:24.042Z,18.60
2019-02-04T11:48:24.097Z,18.35
2019-02-04T11:49:24.094Z,18.76
2019-02-04T11:50:24.135Z,18.45
2019-02-04T11:51:24.172Z,19.11
2019-02-04T11:52:24.212Z,19.59
2019-02-04T11:53:32.370Z,19.56
2019-02-04T11:54:24.294Z,19.06
2019-02-04T11:55:24.330Z,18.18
2019-02-04T11:56:24.368Z,17.14
2019-02-04T11:57:24.409Z,17.64
2019-02-04T11:58:24.452Z,17.95
2019-02-04T11:59:24.485Z,17.74
2019-02-04T12:00:24.526Z,17.48
2019-02-04T12:01:24.564Z,17.74
2019-02-04T12:02:34.403Z,18.32
2019-02-04T12:03:24.643Z,18.45
2019-02-04T12:04:24.679Z,19.14
2019-02-04T12:05:24.718Z,19.13
2019-02-04T12:06:24.758Z,19.26
2019-02-04T12:07:24.794Z,19.80
2019-02-04T12:08:24.832Z,19.10
2019-02-04T12:09:24.873Z,19.04
2019-02-04T12:10:24.912Z,18.91
2019-02-04T12:11:24.949Z,19.18
2019-02-04T12:12:24.988Z,17.44
2019-02-04T12:13:25.025Z,17.89
2019-02-04T12:14:25.064Z,18.44
2019-02-04T12:15:25.103Z,17.99
2019-02-04T12:16:25.142Z,19.10
2019-02-04T12:17:25.179Z,19.63
2019-02-04T12:18:25.218Z,18.92
2019-02-04T12:19:25.257Z,19.65
2019-02-04T12:20:25.297Z,20.47
2019-02-04T12:21:25.334Z,21.29
2019-02-04T12:22:25.377Z,21.32
2019-02-04T12:23:25.411Z,21.59
2019-02-04T12:24:25.451Z,20.82
2019-02-04T12:25:25.491Z,20.95
2019-02-04T12:26:25.530Z,20.51
2019-02-04T12:27:32.114Z,19.99
2019-02-04T12:28:25.608Z,20.28
2019-02-04T12:29:25.795Z,20.89
2019-02-04T12:30:25.687Z,21.31
2019-02-04T12:31:25.726Z,21.72
2019-02-04T12:32:25.767Z,21.19
2019-02-04T12:33:25.807Z,20.61
2019-02-04T12:34:25.847Z,20.91
2019-02-04T12:35:25.886Z,21.31
2019-02-04T12:36:25.926Z,21.98
2019-02-04T12:37:25.971Z,22.03
2019-02-04T12:38:26.007Z,22.17
2019-02-04T12:39:26.047Z,21.71
2019-02-04T12:40:26.093Z,22.24
2019-02-04T12:41:26.129Z,21.27
2019-02-04T12:42:26.170Z,21.82
2019-02-04T12:43:26.210Z,21.71
2019-02-04T12:44:26.251Z,22.18
2019-02-04T12:45:26.291Z,23.38
2019-02-04T12:46:26.334Z,24.24
2019-02-04T12:47:26.373Z,23.80
2019-02-04T12:48:26.414Z,24.34
2019-02-04T12:49:26.456Z,24.96
2019-02-04T12:50:26.497Z,24.88
2019-02-04T12:51:33.628Z,25.25
2019-02-04T12:52:26.581Z,25.85
2019-02-04T12:53:26.622Z,26.05
2019-02-04T12:54:26.846Z,25.97
2019-02-04T12:55:26.704Z,24.30
2019-02-04T12:56:26.749Z,23.23
2019-02-04T12:58:26.831Z,24.32
2019-02-04T12:59:26.873Z,24.37
2019-02-04T13:00:26.917Z,24.28
2019-02-04T13:01:26.960Z,24.71
2019-02-04T13:02:27.330Z,24.39
2019-02-04T13:03:27.044Z,23.32
2019-02-04T13:04:27.087Z,24.06
2019-02-04T13:05:27.459Z,24.20